createdAt,value
2023-05-11T00:00:46.970Z,11.05
2023-05-11T00:01:49.389Z,11.03
2023-05-11T00:02:51.050Z,11.02
2023-05-11T00:03:52.733Z,11.00
2023-05-11T00:04:55.121Z,10.98
2023-05-11T00:05:56.624Z,10.97
2023-05-11T00:06:58.165Z,10.96
2023-05-11T00:07:59.685Z,10.94
2023-05-11T00:09:01.234Z,10.92
2023-05-11T00:10:02.709Z,10.91
2023-05-11T00:11:07.644Z,10.89
2023-05-11T00:12:09.086Z,10.88
2023-05-11T00:13:10.660Z,10.86
2023-05-11T00:14:12.207Z,10.84
2023-05-11T00:15:13.587Z,10.83
2023-05-11T00:16:15.817Z,10.80
2023-05-11T00:17:18.862Z,10.79
2023-05-11T00:18:20.644Z,10.78
2023-05-11T00:19:22.358Z,10.76
2023-05-11T00:20:23.831Z,10.74
2023-05-11T00:21:25.314Z,10.72
2023-05-11T00:22:26.910Z,10.71
2023-05-11T00:23:28.322Z,10.69
2023-05-11T00:24:30.084Z,10.68
2023-05-11T00:25:31.520Z,10.67
2023-05-11T00:26:33.025Z,10.65
2023-05-11T00:27:34.387Z,10.63
2023-05-11T00:28:35.795Z,10.62
2023-05-11T00:29:37.164Z,10.60
2023-05-11T00:30:40.746Z,10.58
2023-05-11T00:31:42.378Z,10.57
2023-05-11T00:32:44.709Z,10.56
2023-05-11T00:33:47.056Z,10.54
2023-05-11T00:34:48.631Z,10.53
2023-05-11T00:35:50.667Z,10.52
2023-05-11T00:36:52.180Z,10.50
2023-05-11T00:37:53.564Z,10.49
2023-05-11T00:38:55.804Z,10.47
2023-05-11T00:39:57.877Z,10.46
2023-05-11T00:40:59.295Z,10.45
2023-05-11T00:42:00.700Z,10.44
2023-05-11T00:43:02.527Z,10.42
2023-05-11T00:44:04.739Z,10.42
2023-05-11T00:45:06.734Z,10.40
2023-05-11T00:46:08.521Z,10.39
2023-05-11T00:47:10.069Z,10.37
2023-05-11T00:48:11.940Z,10.36
2023-05-11T00:49:16.689Z,10.35
2023-05-11T00:50:18.555Z,10.34
2023-05-11T00:51:23.202Z,10.33
2023-05-11T00:52:24.600Z,10.32
2023-05-11T00:53:26.313Z,10.30
2023-05-11T00:54:28.000Z,10.29
2023-05-11T00:55:29.809Z,10.28
2023-05-11T00:56:31.320Z,10.27
2023-05-11T00:57:35.486Z,10.25
2023-05-11T00:58:37.186Z,10.24
2023-05-11T00:59:39.059Z,10.23
2023-05-11T01:00:40.520Z,10.21
2023-05-11T01:01:42.118Z,10.20
2023-05-11T01:02:43.843Z,10.19
2023-05-11T01:03:46.625Z,10.17
2023-05-11T01:04:48.107Z,10.16
2023-05-11T01:05:56.709Z,10.15
2023-05-11T01:07:25.273Z,10.13
2023-05-11T01:08:45.926Z,10.11
2023-05-11T01:10:03.057Z,10.09
2023-05-11T01:11:17.313Z,10.08
2023-05-11T01:12:27.927Z,10.07
2023-05-11T01:13:44.103Z,10.04
2023-05-11T01:15:08.226Z,10.03
2023-05-11T01:16:19.133Z,10.01
2023-05-11T01:17:46.774Z,9.99
2023-05-11T01:19:00.241Z,9.97
2023-05-11T01:20:06.683Z,9.95
2023-05-11T01:21:11.271Z,9.93
2023-05-11T01:22:33.045Z,9.92
2023-05-11T01:23:59.734Z,9.90
2023-05-11T01:25:19.805Z,9.89
2023-05-11T01:26:36.470Z,9.87
2023-05-11T01:28:12.850Z,9.84
2023-05-11T01:29:40.705Z,9.82
2023-05-11T01:31:36.162Z,9.80
2023-05-11T01:32:41.662Z,9.78
2023-05-11T01:33:53.645Z,9.77
2023-05-11T01:35:03.863Z,9.75
2023-05-11T01:36:09.293Z,9.73
2023-05-11T01:37:14.955Z,9.72
2023-05-11T01:38:19.947Z,9.72
2023-05-11T01:39:30.082Z,9.70
2023-05-11T01:40:33.364Z,9.68
2023-05-11T01:41:38.737Z,9.68
2023-05-11T01:43:01.702Z,9.66
2023-05-11T01:44:07.299Z,9.65
2023-05-11T01:45:11.044Z,9.65
2023-05-11T01:46:15.529Z,9.63
2023-05-11T01:47:18.091Z,9.61
2023-05-11T01:48:25.349Z,9.61
2023-05-11T01:49:28.449Z,9.59
2023-05-11T01:50:31.877Z,9.58
2023-05-11T01:51:36.817Z,9.58
2023-05-11T01:52:40.231Z,9.56
2023-05-11T01:53:44.372Z,9.55
2023-05-11T01:54:49.053Z,9.54
2023-05-11T01:55:52.227Z,9.54
2023-05-11T01:56:55.767Z,9.52
2023-05-11T01:57:59.620Z,9.51
2023-05-11T01:59:02.501Z,9.50
2023-05-11T02:00:05.184Z,9.48
2023-05-11T02:01:17.049Z,9.48
2023-05-11T02:02:19.516Z,9.47
2023-05-11T02:03:22.625Z,9.45
2023-05-11T02:04:25.900Z,9.45
2023-05-11T02:05:30.038Z,9.43
2023-05-11T02:06:34.155Z,9.42
2023-05-11T02:07:37.998Z,9.42
2023-05-11T02:08:40.732Z,9.41
2023-05-11T02:09:43.764Z,9.40
2023-05-11T02:10:47.680Z,9.39
2023-05-11T02:11:51.317Z,9.37
2023-05-11T02:12:54.035Z,9.37
2023-05-11T02:13:58.089Z,9.36
2023-05-11T02:15:02.462Z,9.34
2023-05-11T02:16:06.548Z,9.34
2023-05-11T02:17:08.978Z,9.33
2023-05-11T02:18:14.210Z,9.33
2023-05-11T02:19:17.594Z,9.32
2023-05-11T02:20:19.891Z,9.31
2023-05-11T02:21:22.152Z,9.30
2023-05-11T02:22:25.126Z,9.29
2023-05-11T02:23:27.476Z,9.28
2023-05-11T02:24:30.490Z,9.28
2023-05-11T02:25:32.873Z,9.27
2023-05-11T02:26:34.623Z,9.25
2023-05-11T02:27:36.572Z,9.24
2023-05-11T02:28:38.331Z,9.23
2023-05-11T02:29:39.763Z,9.22
2023-05-11T02:30:46.340Z,9.21
2023-05-11T02:31:55.227Z,9.20
2023-05-11T02:33:01.037Z,9.19
2023-05-11T02:34:18.459Z,9.17
2023-05-11T02:35:27.603Z,9.16
2023-05-11T02:36:32.662Z,9.15
2023-05-11T02:37:39.801Z,9.14
2023-05-11T02:38:44.808Z,9.13
2023-05-11T02:39:52.185Z,9.11
2023-05-11T02:40:58.185Z,9.10
2023-05-11T02:42:08.099Z,9.09
2023-05-11T02:43:12.402Z,9.08
2023-05-11T02:44:20.359Z,9.07
2023-05-11T02:45:23.892Z,9.06
2023-05-11T02:46:30.411Z,9.06
2023-05-11T02:47:39.025Z,9.05
2023-05-11T02:48:48.002Z,9.04
2023-05-11T02:49:53.474Z,9.02
2023-05-11T02:51:00.437Z,9.02
2023-05-11T02:52:07.593Z,9.01
2023-05-11T02:53:17.975Z,9.00
2023-05-11T02:54:22.413Z,8.99
2023-05-11T02:55:26.450Z,8.98
2023-05-11T02:56:28.982Z,8.98
2023-05-11T02:57:30.981Z,8.97
2023-05-11T02:58:35.915Z,8.96
2023-05-11T02:59:51.433Z,8.95
2023-05-11T03:00:53.397Z,8.95
2023-05-11T03:01:55.177Z,8.95
2023-05-11T03:02:57.246Z,8.95
2023-05-11T03:03:58.891Z,8.94
2023-05-11T03:05:02.001Z,8.93
2023-05-11T03:06:04.290Z,8.93
2023-05-11T03:07:07.376Z,8.92
2023-05-11T03:08:09.133Z,8.93
2023-05-11T03:09:11.273Z,8.93
2023-05-11T03:10:17.147Z,8.92
2023-05-11T03:11:20.519Z,8.92
2023-05-11T03:12:22.935Z,8.93
2023-05-11T03:13:26.036Z,8.92
2023-05-11T03:14:31.168Z,8.92
2023-05-11T03:15:33.683Z,8.92
2023-05-11T03:16:37.423Z,8.92
2023-05-11T03:17:40.987Z,8.93
2023-05-11T03:18:43.725Z,8.93
2023-05-11T03:19:45.946Z,8.93
2023-05-11T03:20:49.480Z,8.93
2023-05-11T03:21:51.915Z,8.93
2023-05-11T03:22:55.312Z,8.92
2023-05-11T03:23:57.436Z,8.93
2023-05-11T03:25:02.084Z,8.93
2023-05-11T03:26:06.081Z,8.93
2023-05-11T03:27:08.947Z,8.94
2023-05-11T03:28:13.071Z,8.94
2023-05-11T03:29:17.272Z,8.94
2023-05-11T03:30:19.825Z,8.94
2023-05-11T03:31:22.999Z,8.95
2023-05-11T03:32:24.899Z,8.96
2023-05-11T03:33:26.826Z,8.97
2023-05-11T03:34:28.377Z,8.98
2023-05-11T03:35:32.940Z,8.98
2023-05-11T03:36:35.243Z,9.00
2023-05-11T03:37:37.928Z,9.01
2023-05-11T03:38:40.629Z,9.02
2023-05-11T03:39:47.469Z,9.02
2023-05-11T03:40:51.879Z,9.04
2023-05-11T03:41:54.897Z,9.05
2023-05-11T03:43:01.358Z,9.06
2023-05-11T03:44:06.273Z,9.08
2023-05-11T03:45:12.718Z,9.10
2023-05-11T03:46:18.357Z,9.11
2023-05-11T03:47:21.194Z,9.13
2023-05-11T03:48:22.909Z,9.15
2023-05-11T03:49:25.296Z,9.17
2023-05-11T03:50:26.864Z,9.19
2023-05-11T03:51:28.959Z,9.20
2023-05-11T03:52:31.493Z,9.22
2023-05-11T03:53:33.201Z,9.24
2023-05-11T03:54:35.625Z,9.26
2023-05-11T03:55:37.373Z,9.28
2023-05-11T03:56:39.821Z,9.30
2023-05-11T03:57:43.601Z,9.32
2023-05-11T03:58:45.517Z,9.36
2023-05-11T03:59:47.098Z,9.37
2023-05-11T04:00:50.299Z,9.39
2023-05-11T04:01:53.277Z,9.41
2023-05-11T04:02:55.103Z,9.44
2023-05-11T04:03:57.427Z,9.46
2023-05-11T04:04:59.160Z,9.49
2023-05-11T04:06:00.615Z,9.52
2023-05-11T04:07:02.156Z,9.54
2023-05-11T04:08:05.516Z,9.57
2023-05-11T04:09:07.263Z,9.60
2023-05-11T04:10:09.080Z,9.62
2023-05-11T04:11:10.983Z,9.65
2023-05-11T04:12:12.352Z,9.68
2023-05-11T04:13:13.886Z,9.71
2023-05-11T04:14:16.952Z,9.74
2023-05-11T04:15:18.549Z,9.79
2023-05-11T04:16:20.023Z,9.82
2023-05-11T04:17:21.471Z,9.86
2023-05-11T04:18:22.867Z,9.89
2023-05-11T04:19:24.352Z,9.93
2023-05-11T04:20:25.946Z,9.96
2023-05-11T04:21:27.426Z,10.00
2023-05-11T04:22:28.855Z,10.03
2023-05-11T04:23:30.485Z,10.07
2023-05-11T04:24:33.810Z,10.11
2023-05-11T04:25:36.032Z,10.15
2023-05-11T04:26:37.410Z,10.19
2023-05-11T04:27:39.045Z,10.23
2023-05-11T04:28:40.467Z,10.26
2023-05-11T04:29:42.057Z,10.30
2023-05-11T04:30:43.537Z,10.34
2023-05-11T04:31:45.144Z,10.38
2023-05-11T04:32:46.633Z,10.41
2023-05-11T04:33:48.264Z,10.45
2023-05-11T04:34:50.661Z,10.49
2023-05-11T04:35:58.022Z,10.54
2023-05-11T04:36:59.898Z,10.58
2023-05-11T04:38:02.515Z,10.63
2023-05-11T04:39:04.154Z,10.67
2023-05-11T04:40:06.676Z,10.72
2023-05-11T04:41:14.219Z,10.77
2023-05-11T04:42:16.161Z,10.81
2023-05-11T04:43:19.624Z,10.85
2023-05-11T04:44:21.302Z,10.89
2023-05-11T04:45:23.020Z,10.94
2023-05-11T04:46:24.712Z,10.98
2023-05-11T04:47:26.250Z,11.02
2023-05-11T04:48:28.582Z,11.06
2023-05-11T04:49:30.511Z,11.11
2023-05-11T04:50:32.813Z,11.16
2023-05-11T04:51:34.901Z,11.20
2023-05-11T04:52:36.261Z,11.23
2023-05-11T04:53:37.770Z,11.26
2023-05-11T04:54:39.213Z,11.30
2023-05-11T04:55:40.683Z,11.34
2023-05-11T04:56:42.980Z,11.38
2023-05-11T04:57:44.348Z,11.42
2023-05-11T04:58:45.719Z,11.48
2023-05-11T04:59:47.243Z,11.53
2023-05-11T05:00:48.870Z,11.58
2023-05-11T05:01:50.253Z,11.62
2023-05-11T05:02:51.747Z,11.67
2023-05-11T05:03:53.288Z,11.73
2023-05-11T05:04:55.017Z,11.78
2023-05-11T05:05:56.734Z,11.82
2023-05-11T05:06:58.221Z,11.87
2023-05-11T05:08:00.069Z,11.91
2023-05-11T05:09:01.592Z,11.96
2023-05-11T05:10:06.293Z,12.00
2023-05-11T05:11:07.866Z,12.05
2023-05-11T05:12:10.418Z,12.09
2023-05-11T05:13:11.961Z,12.13
2023-05-11T05:14:13.713Z,12.18
2023-05-11T05:15:15.457Z,12.23
2023-05-11T05:16:17.039Z,12.28
2023-05-11T05:17:18.590Z,12.33
2023-05-11T05:18:20.290Z,12.36
2023-05-11T05:19:22.211Z,12.40
2023-05-11T05:20:25.538Z,12.45
2023-05-11T05:21:27.108Z,12.51
2023-05-11T05:22:31.380Z,12.56
2023-05-11T05:23:32.855Z,12.62
2023-05-11T05:24:35.212Z,12.67
2023-05-11T05:25:37.868Z,12.72
2023-05-11T05:26:40.748Z,12.77
2023-05-11T05:27:43.106Z,12.80
2023-05-11T05:28:50.534Z,12.85
2023-05-11T05:29:53.984Z,12.89
2023-05-11T05:30:55.879Z,12.93
2023-05-11T05:31:59.188Z,12.97
2023-05-11T05:33:01.424Z,13.01
2023-05-11T05:34:03.578Z,13.04
2023-05-11T05:35:05.663Z,13.08
2023-05-11T05:36:07.469Z,13.12
2023-05-11T05:37:09.118Z,13.15
2023-05-11T05:38:10.629Z,13.20
2023-05-11T05:39:12.204Z,13.28
2023-05-11T05:40:14.545Z,13.38
2023-05-11T05:41:22.341Z,13.50
2023-05-11T05:42:23.863Z,13.61
2023-05-11T05:43:25.543Z,13.70
2023-05-11T05:44:26.943Z,13.77
2023-05-11T05:45:29.128Z,13.82
2023-05-11T05:46:31.281Z,13.88
2023-05-11T05:47:32.867Z,13.95
2023-05-11T05:48:35.039Z,14.06
2023-05-11T05:49:36.517Z,14.16
2023-05-11T05:50:39.780Z,14.23
2023-05-11T05:51:41.578Z,14.25
2023-05-11T05:52:43.339Z,14.23
2023-05-11T05:53:45.829Z,14.21
2023-05-11T05:54:47.329Z,14.18
2023-05-11T05:55:48.756Z,14.16
2023-05-11T05:56:51.392Z,14.13
2023-05-11T05:57:52.937Z,14.11
2023-05-11T05:58:55.390Z,14.09
2023-05-11T05:59:57.568Z,14.07
2023-05-11T06:01:00.211Z,14.06
2023-05-11T06:02:01.833Z,14.05
2023-05-11T06:03:03.849Z,14.03
2023-05-11T06:04:05.886Z,14.04
2023-05-11T06:05:08.045Z,14.05
2023-05-11T06:06:09.603Z,14.05
2023-05-11T06:07:11.227Z,14.05
2023-05-11T06:08:12.573Z,14.04
2023-05-11T06:09:14.179Z,14.05
2023-05-11T06:10:17.135Z,14.06
2023-05-11T06:11:19.080Z,14.08
2023-05-11T06:12:20.984Z,14.10
2023-05-11T06:13:23.197Z,14.13
2023-05-11T06:14:25.684Z,14.16
2023-05-11T06:15:27.285Z,14.18
2023-05-11T06:16:32.563Z,14.22
2023-05-11T06:17:34.134Z,14.25
2023-05-11T06:18:35.644Z,14.27
2023-05-11T06:19:39.910Z,14.30
2023-05-11T06:20:41.518Z,14.33
2023-05-11T06:21:44.566Z,14.36
2023-05-11T06:22:46.268Z,14.38
2023-05-11T06:23:47.977Z,14.41
2023-05-11T06:24:50.146Z,14.44
2023-05-11T06:25:52.761Z,14.47
2023-05-11T06:26:54.351Z,14.51
2023-05-11T06:27:56.327Z,14.55
2023-05-11T06:28:58.091Z,14.58
2023-05-11T06:29:59.704Z,14.62
2023-05-11T06:31:03.117Z,14.65
2023-05-11T06:32:06.685Z,14.68
2023-05-11T06:33:08.600Z,14.71
2023-05-11T06:34:10.430Z,14.74
2023-05-11T06:35:13.542Z,14.77
2023-05-11T06:36:14.938Z,14.81
2023-05-11T06:37:20.445Z,14.84
2023-05-11T06:38:23.938Z,14.87
2023-05-11T06:39:25.472Z,14.90
2023-05-11T06:40:27.091Z,14.91
2023-05-11T06:41:28.529Z,14.91
2023-05-11T06:42:30.165Z,14.93
2023-05-11T06:43:40.226Z,14.96
2023-05-11T06:44:53.448Z,15.00
2023-05-11T06:45:55.237Z,15.04
2023-05-11T06:46:56.743Z,15.10
2023-05-11T06:47:58.171Z,15.15
2023-05-11T06:49:00.364Z,15.19
2023-05-11T06:50:01.905Z,15.23
2023-05-11T06:51:03.821Z,15.26
2023-05-11T06:52:05.705Z,15.30
2023-05-11T06:53:07.537Z,15.33
2023-05-11T06:54:09.233Z,15.37
2023-05-11T06:55:13.629Z,15.41
2023-05-11T06:56:15.273Z,15.47
2023-05-11T06:57:16.691Z,15.51
2023-05-11T06:58:19.799Z,15.55
2023-05-11T06:59:21.330Z,15.58
2023-05-11T07:00:23.071Z,15.62
2023-05-11T07:01:24.496Z,15.66
2023-05-11T07:02:26.039Z,15.68
2023-05-11T07:03:27.516Z,15.73
2023-05-11T07:04:29.941Z,15.77
2023-05-11T07:05:31.724Z,15.80
2023-05-11T07:06:33.312Z,15.86
2023-05-11T07:07:34.722Z,15.90
2023-05-11T07:08:36.141Z,15.94
2023-05-11T07:09:38.395Z,16.00
2023-05-11T07:10:41.282Z,16.05
2023-05-11T07:11:42.690Z,16.10
2023-05-11T07:12:44.116Z,16.13
2023-05-11T07:13:45.544Z,16.15
2023-05-11T07:14:46.948Z,16.17
2023-05-11T07:15:49.133Z,16.18
2023-05-11T07:16:52.102Z,16.21
2023-05-11T07:17:53.723Z,16.23
2023-05-11T07:18:55.503Z,16.24
2023-05-11T07:19:57.141Z,16.24
2023-05-11T07:20:58.747Z,16.24
2023-05-11T07:22:01.517Z,16.24
2023-05-11T07:23:02.952Z,16.24
2023-05-11T07:24:04.653Z,16.25
2023-05-11T07:25:09.026Z,16.26
2023-05-11T07:26:10.644Z,16.28
2023-05-11T07:27:12.228Z,16.30
2023-05-11T07:28:13.711Z,16.32
2023-05-11T07:29:15.420Z,16.34
2023-05-11T07:30:18.562Z,16.37
2023-05-11T07:31:20.687Z,16.40
2023-05-11T07:32:22.528Z,16.43
2023-05-11T07:33:24.028Z,16.46
2023-05-11T07:34:25.711Z,16.50
2023-05-11T07:35:27.527Z,16.55
2023-05-11T07:36:29.383Z,16.60
2023-05-11T07:37:30.877Z,16.65
2023-05-11T07:38:32.951Z,16.70
2023-05-11T07:39:34.353Z,16.75
2023-05-11T07:40:35.792Z,16.81
2023-05-11T07:41:37.223Z,16.85
2023-05-11T07:42:38.569Z,16.90
2023-05-11T07:43:40.548Z,16.95
2023-05-11T07:44:41.900Z,16.99
2023-05-11T07:45:43.609Z,17.02
2023-05-11T07:46:45.399Z,17.05
2023-05-11T07:47:47.093Z,17.08
2023-05-11T07:48:48.614Z,17.11
2023-05-11T07:49:50.991Z,17.15
2023-05-11T07:50:52.496Z,17.17
2023-05-11T07:51:54.089Z,17.21
2023-05-11T07:52:56.143Z,17.24
2023-05-11T07:53:57.604Z,17.28
2023-05-11T07:54:59.009Z,17.31
2023-05-11T07:56:00.943Z,17.34
2023-05-11T07:57:03.353Z,17.36
2023-05-11T07:58:04.751Z,17.38
2023-05-11T07:59:06.272Z,17.40
2023-05-11T08:00:08.797Z,17.40
2023-05-11T08:01:16.439Z,17.41
2023-05-11T08:02:18.349Z,17.44
2023-05-11T08:03:20.005Z,17.49
2023-05-11T08:04:21.565Z,17.52
2023-05-11T08:05:22.976Z,17.55
2023-05-11T08:06:24.759Z,17.58
2023-05-11T08:07:26.177Z,17.62
2023-05-11T08:08:29.564Z,17.65
2023-05-11T08:09:31.578Z,17.69
2023-05-11T08:10:33.052Z,17.73
2023-05-11T08:11:34.603Z,17.79
2023-05-11T08:12:36.594Z,17.83
2023-05-11T08:13:38.138Z,17.86
2023-05-11T08:14:39.571Z,17.89
2023-05-11T08:15:40.949Z,17.93
2023-05-11T08:16:42.607Z,17.98
2023-05-11T08:17:45.468Z,18.00
2023-05-11T08:18:47.053Z,18.03
2023-05-11T08:19:48.775Z,18.06
2023-05-11T08:20:50.201Z,18.09
2023-05-11T08:21:51.698Z,18.12
2023-05-11T08:22:53.244Z,18.14
2023-05-11T08:23:54.687Z,18.17
2023-05-11T08:24:56.153Z,18.20
2023-05-11T08:25:57.539Z,18.23
2023-05-11T08:26:59.358Z,18.26
2023-05-11T08:28:01.488Z,18.28
2023-05-11T08:29:04.625Z,18.31
2023-05-11T08:30:07.805Z,18.33
2023-05-11T08:31:11.361Z,18.36
2023-05-11T08:32:13.355Z,18.41
2023-05-11T08:33:33.759Z,18.44
2023-05-11T08:34:36.486Z,18.50
2023-05-11T08:35:39.077Z,18.54
2023-05-11T08:36:40.461Z,18.57
2023-05-11T08:37:41.904Z,18.59
2023-05-11T08:38:44.102Z,18.59
2023-05-11T08:39:47.261Z,18.59
2023-05-11T08:40:50.761Z,18.59
2023-05-11T08:41:53.581Z,18.59
2023-05-11T08:42:58.644Z,18.62
2023-05-11T08:44:00.863Z,18.64
2023-05-11T08:45:04.145Z,18.67
2023-05-11T08:46:07.848Z,18.70
2023-05-11T08:47:22.849Z,18.71
2023-05-11T08:48:26.413Z,18.73
2023-05-11T08:49:27.951Z,18.73
2023-05-11T08:50:29.651Z,18.73
2023-05-11T08:51:32.126Z,18.75
2023-05-11T08:52:33.990Z,18.77
2023-05-11T08:53:35.447Z,18.79
2023-05-11T08:54:36.842Z,18.83
2023-05-11T08:55:41.045Z,18.85
2023-05-11T08:56:42.712Z,18.90
2023-05-11T08:57:45.873Z,18.94
2023-05-11T08:58:49.491Z,18.98
2023-05-11T08:59:52.553Z,19.01
2023-05-11T09:00:55.034Z,19.02
2023-05-11T09:01:57.571Z,19.03
2023-05-11T09:02:59.933Z,19.04
2023-05-11T09:04:01.734Z,19.06
2023-05-11T09:05:03.667Z,19.09
2023-05-11T09:06:06.952Z,19.12
2023-05-11T09:07:11.008Z,19.15
2023-05-11T09:08:14.130Z,19.19
2023-05-11T09:09:17.507Z,19.22
2023-05-11T09:10:19.311Z,19.23
2023-05-11T09:11:22.160Z,19.24
2023-05-11T09:12:25.549Z,19.26
2023-05-11T09:13:27.292Z,19.31
2023-05-11T09:14:29.105Z,19.34
2023-05-11T09:15:37.024Z,19.36
2023-05-11T09:16:38.943Z,19.39
2023-05-11T09:17:40.506Z,19.42
2023-05-11T09:18:49.189Z,19.45
2023-05-11T09:20:07.032Z,19.50
2023-05-11T09:21:08.541Z,19.54
2023-05-11T09:22:10.221Z,19.56
2023-05-11T09:23:18.742Z,19.58
2023-05-11T09:24:21.190Z,19.61
2023-05-11T09:25:23.403Z,19.63
2023-05-11T09:26:27.788Z,19.64
2023-05-11T09:27:29.370Z,19.66
2023-05-11T09:28:36.019Z,19.67
2023-05-11T09:29:37.718Z,19.70
2023-05-11T09:30:39.073Z,19.72
2023-05-11T09:31:44.426Z,19.73
2023-05-11T09:32:53.754Z,19.75
2023-05-11T09:34:09.795Z,19.74
2023-05-11T09:35:31.040Z,19.74
2023-05-11T09:36:32.446Z,19.74
2023-05-11T09:37:33.930Z,19.74
2023-05-11T09:38:35.296Z,19.71
2023-05-11T09:39:44.779Z,19.70
2023-05-11T09:41:00.411Z,19.66
2023-05-11T09:42:17.982Z,19.65
2023-05-11T09:43:29.933Z,19.65
2023-05-11T09:44:31.767Z,19.66
2023-05-11T09:45:37.324Z,19.65
2023-05-11T09:46:40.670Z,19.67
2023-05-11T09:47:42.184Z,19.68
2023-05-11T09:48:43.707Z,19.69
2023-05-11T09:49:46.988Z,19.71
2023-05-11T09:50:49.658Z,19.73
2023-05-11T09:52:00.184Z,19.74
2023-05-11T09:53:01.987Z,19.74
2023-05-11T09:54:21.444Z,19.74
2023-05-11T09:55:22.918Z,19.75
2023-05-11T09:56:44.080Z,19.78
2023-05-11T09:57:53.732Z,19.83
2023-05-11T09:58:56.841Z,19.86
2023-05-11T09:59:59.809Z,19.89
2023-05-11T10:01:01.180Z,19.92
2023-05-11T10:02:18.715Z,19.95
2023-05-11T10:03:20.287Z,19.99
2023-05-11T10:04:29.012Z,20.02
2023-05-11T10:05:33.580Z,20.04
2023-05-11T10:06:46.905Z,20.07
2023-05-11T10:07:56.425Z,20.10
2023-05-11T10:09:08.269Z,20.11
2023-05-11T10:10:11.113Z,20.11
2023-05-11T10:11:12.835Z,20.12
2023-05-11T10:12:14.414Z,20.14
2023-05-11T10:13:16.088Z,20.17
2023-05-11T10:14:18.846Z,20.20
2023-05-11T10:15:25.825Z,20.22
2023-05-11T10:16:27.475Z,20.23
2023-05-11T10:17:30.025Z,20.23
2023-05-11T10:18:32.040Z,20.25
2023-05-11T10:19:33.896Z,20.28
2023-05-11T10:20:35.378Z,20.31
2023-05-11T10:21:37.826Z,20.33
2023-05-11T10:22:39.583Z,20.35
2023-05-11T10:23:41.810Z,20.37
2023-05-11T10:24:43.775Z,20.39
2023-05-11T10:25:47.326Z,20.43
2023-05-11T10:26:50.231Z,20.45
2023-05-11T10:27:52.825Z,20.46
2023-05-11T10:28:55.056Z,20.46
2023-05-11T10:29:57.729Z,20.46
2023-05-11T10:31:00.178Z,20.48
2023-05-11T10:32:03.646Z,20.51
2023-05-11T10:33:06.169Z,20.56
2023-05-11T10:34:11.304Z,20.60
2023-05-11T10:35:13.208Z,20.63
2023-05-11T10:36:19.345Z,20.66
2023-05-11T10:37:22.026Z,20.68
2023-05-11T10:38:24.507Z,20.72
2023-05-11T10:39:28.606Z,20.77
2023-05-11T10:40:36.463Z,20.81
2023-05-11T10:41:48.338Z,20.83
2023-05-11T10:43:17.908Z,20.86
2023-05-11T10:45:15.918Z,20.92
2023-05-11T10:46:45.357Z,20.99
2023-05-11T10:48:02.387Z,21.04
2023-05-11T10:49:10.200Z,21.08
2023-05-11T10:50:21.219Z,21.10
2023-05-11T10:51:38.112Z,21.12
2023-05-11T10:53:00.382Z,21.14
2023-05-11T10:54:38.149Z,21.20
2023-05-11T10:56:02.810Z,21.24
2023-05-11T10:57:32.863Z,21.28
2023-05-11T10:58:47.211Z,21.32
2023-05-11T11:00:30.242Z,21.33
2023-05-11T11:01:42.343Z,21.31
2023-05-11T11:02:44.805Z,21.31
2023-05-11T11:04:02.428Z,21.29
2023-05-11T11:05:10.147Z,21.28
2023-05-11T11:06:24.043Z,21.30
2023-05-11T11:07:25.715Z,21.36
2023-05-11T11:08:27.944Z,21.40
2023-05-11T11:09:55.455Z,21.46
2023-05-11T11:10:56.937Z,21.54
2023-05-11T11:12:09.128Z,21.59
2023-05-11T11:13:13.251Z,21.65
2023-05-11T11:14:17.266Z,21.69
2023-05-11T11:15:18.978Z,21.77
2023-05-11T11:16:23.008Z,21.98
2023-05-11T11:17:34.563Z,22.29
2023-05-11T11:18:36.317Z,22.70
2023-05-11T11:19:37.856Z,23.01
2023-05-11T11:20:48.017Z,23.25
2023-05-11T11:21:49.613Z,23.46
2023-05-11T11:22:51.202Z,23.59
2023-05-11T11:23:53.016Z,23.68
2023-05-11T11:24:54.485Z,23.72
2023-05-11T11:25:56.373Z,23.74
2023-05-11T11:26:58.486Z,23.78
2023-05-11T11:28:00.310Z,23.84
2023-05-11T11:29:08.662Z,23.90
2023-05-11T11:30:23.437Z,23.94
2023-05-11T11:31:25.871Z,24.03
2023-05-11T11:32:27.966Z,24.11
2023-05-11T11:33:29.441Z,24.19
2023-05-11T11:34:33.236Z,24.31
2023-05-11T11:35:40.751Z,24.44
2023-05-11T11:36:54.743Z,24.53
2023-05-11T11:38:01.644Z,24.60
2023-05-11T11:39:03.405Z,24.63
2023-05-11T11:40:14.656Z,24.67
2023-05-11T11:41:28.801Z,24.75
2023-05-11T11:42:30.258Z,24.85
2023-05-11T11:43:44.548Z,24.98
2023-05-11T11:44:46.301Z,25.18
2023-05-11T11:45:58.838Z,25.35
2023-05-11T11:47:20.250Z,25.56
2023-05-11T11:48:35.358Z,25.75
2023-05-11T11:49:37.965Z,25.87
2023-05-11T11:50:41.165Z,26.01
2023-05-11T11:51:43.325Z,26.16
2023-05-11T11:52:44.689Z,26.34
2023-05-11T11:53:48.856Z,26.52
2023-05-11T11:54:50.666Z,26.69
2023-05-11T11:55:52.137Z,26.84
2023-05-11T11:56:54.230Z,26.96
2023-05-11T11:57:55.731Z,27.10
2023-05-11T11:59:03.270Z,27.28
2023-05-11T12:00:12.064Z,27.47
2023-05-11T12:01:28.908Z,27.65
2023-05-11T12:02:31.485Z,27.80
2023-05-11T12:03:35.834Z,27.91
2023-05-11T12:04:43.895Z,28.02
2023-05-11T12:05:46.579Z,28.08
2023-05-11T12:06:55.693Z,28.11
2023-05-11T12:07:59.282Z,28.12
2023-05-11T12:09:01.106Z,28.12
2023-05-11T12:10:03.464Z,28.15
2023-05-11T12:11:06.000Z,28.25
2023-05-11T12:12:08.745Z,28.33
2023-05-11T12:13:10.726Z,28.44
2023-05-11T12:14:12.321Z,28.53
2023-05-11T12:15:28.786Z,28.63
2023-05-11T12:16:31.563Z,28.76
2023-05-11T12:17:37.329Z,28.84
2023-05-11T12:18:39.763Z,28.94
2023-05-11T12:19:44.862Z,28.98
2023-05-11T12:20:46.373Z,29.05
2023-05-11T12:21:47.808Z,29.04
2023-05-11T12:22:50.061Z,29.05
2023-05-11T12:23:56.662Z,29.09
2023-05-11T12:25:04.271Z,29.18
2023-05-11T12:26:06.580Z,29.28
2023-05-11T12:27:08.117Z,29.40
2023-05-11T12:28:11.889Z,29.51
2023-05-11T12:29:14.787Z,29.67
2023-05-11T12:30:27.694Z,29.85
2023-05-11T12:31:35.281Z,29.96
2023-05-11T12:32:36.737Z,30.07
2023-05-11T12:33:49.180Z,30.22
2023-05-11T12:35:01.989Z,30.43
2023-05-11T12:36:03.682Z,30.68
2023-05-11T12:37:06.349Z,30.91
2023-05-11T12:38:11.124Z,31.17
2023-05-11T12:39:23.537Z,31.40
2023-05-11T12:40:25.376Z,31.68
2023-05-11T12:41:26.784Z,31.95
2023-05-11T12:42:32.221Z,32.25
2023-05-11T12:43:35.256Z,32.57
2023-05-11T12:44:36.906Z,32.75
2023-05-11T12:45:38.564Z,32.98
2023-05-11T12:46:40.164Z,33.30
2023-05-11T12:47:41.684Z,33.59
2023-05-11T12:48:45.782Z,33.92
2023-05-11T12:49:47.294Z,34.14
2023-05-11T12:50:49.083Z,34.45
2023-05-11T12:52:10.425Z,34.71
2023-05-11T12:53:17.262Z,34.92
2023-05-11T12:54:33.532Z,35.13
2023-05-11T12:55:34.886Z,35.34
2023-05-11T12:56:48.449Z,35.40
2023-05-11T12:57:53.901Z,35.45
2023-05-11T12:58:55.317Z,35.54
2023-05-11T13:00:11.007Z,35.48
2023-05-11T13:01:12.509Z,35.35
2023-05-11T13:02:19.828Z,35.26
2023-05-11T13:03:30.057Z,35.19
2023-05-11T13:04:32.411Z,35.22
2023-05-11T13:05:33.970Z,35.22
2023-05-11T13:06:35.791Z,35.16
2023-05-11T13:07:37.385Z,35.10
2023-05-11T13:08:44.355Z,35.10
2023-05-11T13:09:57.189Z,35.15
2023-05-11T13:11:24.850Z,35.27
2023-05-11T13:12:29.596Z,35.46
2023-05-11T13:13:32.630Z,35.66
2023-05-11T13:14:34.169Z,35.69
2023-05-11T13:15:50.406Z,35.69
2023-05-11T13:16:53.466Z,35.63
2023-05-11T13:17:57.629Z,35.58
2023-05-11T13:19:07.647Z,35.61
2023-05-11T13:20:21.300Z,35.54
2023-05-11T13:21:22.808Z,35.46
2023-05-11T13:22:24.235Z,35.37
2023-05-11T13:23:25.670Z,35.40
2023-05-11T13:24:27.686Z,35.69
2023-05-11T13:25:29.257Z,35.68
2023-05-11T13:26:31.013Z,35.42
2023-05-11T13:27:32.480Z,35.28
2023-05-11T13:28:34.082Z,35.27
2023-05-11T13:29:37.204Z,35.21
2023-05-11T13:30:38.755Z,35.26
2023-05-11T13:31:44.911Z,34.99
2023-05-11T13:32:46.783Z,34.94
2023-05-11T13:33:52.060Z,34.99
2023-05-11T13:34:53.599Z,35.07
2023-05-11T13:35:55.123Z,35.07
2023-05-11T13:37:04.895Z,35.14
2023-05-11T13:38:06.732Z,35.31
2023-05-11T13:39:08.521Z,35.46
2023-05-11T13:40:11.515Z,35.59
2023-05-11T13:41:13.563Z,35.80
2023-05-11T13:42:15.684Z,36.06
2023-05-11T13:43:17.359Z,36.13
2023-05-11T13:44:18.869Z,36.03
2023-05-11T13:45:20.653Z,35.94
2023-05-11T13:46:22.223Z,36.00
2023-05-11T13:47:23.894Z,36.07
2023-05-11T13:48:25.667Z,36.12
2023-05-11T13:49:27.099Z,36.13
2023-05-11T13:50:28.670Z,36.10
2023-05-11T13:51:31.405Z,36.10
2023-05-11T13:52:33.040Z,36.08
2023-05-11T13:53:34.547Z,36.08
2023-05-11T13:54:35.931Z,36.11
2023-05-11T13:55:38.151Z,36.16
2023-05-11T13:56:39.702Z,36.23